Time;durP1;ratioP1;P1;durP2;ratioP2;P2;SDS_P1;SDS_P2;PMS_P1;PMS_P2;Temp;Humidity;BMP_temperature;BMP_pressure;BME280_temperature;BME280_humidity;BME280_pressure;Samples;Min_cycle;Max_cycle;Signal;HPM_P1;HPM_P2
2020/12/17 00:00:29;;;;;;;66.43;13.77;;;6.50;99.90;;;;;;5011396;28;20871;-65
2020/12/17 00:02:55;;;;;;;24.63;12.87;;;6.50;99.90;;;;;;5011106;28;20503;-66
2020/12/17 00:05:21;;;;;;;32.33;13.83;;;6.50;99.90;;;;;;5011763;28;20184;-66
2020/12/17 00:07:47;;;;;;;33.37;12.67;;;6.50;99.90;;;;;;5011145;28;20192;-66
2020/12/17 00:10:14;;;;;;;61.97;13.20;;;6.50;99.90;;;;;;5011141;28;20192;-66
2020/12/17 00:12:42;;;;;;;45.47;13.60;;;6.50;99.90;;;;;;5010870;28;20507;-65
2020/12/17 00:15:10;;;;;;;55.17;13.93;;;6.50;99.90;;;;;;5011194;28;20455;-65
2020/12/17 00:17:41;;;;;;;21.33;12.97;;;6.50;99.90;;;;;;5011547;28;20903;-64
2020/12/17 00:20:07;;;;;;;29.00;13.67;;;6.50;99.90;;;;;;5011172;28;20510;-65
2020/12/17 00:22:34;;;;;;;54.53;14.57;;;6.50;99.90;;;;;;5011283;28;20443;-65
2020/12/17 00:25:02;;;;;;;27.67;13.80;;;6.50;99.90;;;;;;5011083;28;20419;-65
2020/12/17 00:27:28;;;;;;;18.87;12.37;;;6.50;99.90;;;;;;5011051;28;20411;-65
2020/12/17 00:29:53;;;;;;;38.87;12.87;;;6.60;99.90;;;;;;5011221;28;20574;-65
2020/12/17 00:32:19;;;;;;;33.33;12.60;;;6.60;99.90;;;;;;5012478;28;20208;-65
2020/12/17 00:34:45;;;;;;;25.23;12.50;;;6.50;99.90;;;;;;5011171;28;20184;-65
2020/12/17 00:37:10;;;;;;;52.80;13.10;;;6.60;99.90;;;;;;5010950;28;20618;-65
2020/12/17 00:39:36;;;;;;;34.23;12.57;;;6.60;99.90;;;;;;5010889;28;20243;-65
2020/12/17 00:42:04;;;;;;;43.07;12.70;;;6.60;99.90;;;;;;5011177;28;20184;-66
2020/12/17 00:44:30;;;;;;;49.30;13.23;;;6.60;99.90;;;;;;5010754;28;20271;-66
2020/12/17 00:46:56;;;;;;;35.47;12.87;;;6.50;99.90;;;;;;5011208;28;20399;-65
2020/12/17 00:49:22;;;;;;;24.43;13.27;;;6.50;99.90;;;;;;5011083;28;20996;-65
2020/12/17 00:51:47;;;;;;;17.07;12.40;;;6.50;99.90;;;;;;4992801;28;20631;-66
2020/12/17 00:54:13;;;;;;;20.03;13.83;;;6.50;99.90;;;;;;5010750;28;20172;-66
2020/12/17 00:56:47;;;;;;;23.60;12.93;;;6.50;99.90;;;;;;5010777;28;20184;-65
2020/12/17 00:59:13;;;;;;;21.93;14.17;;;6.50;99.90;;;;;;5010734;28;20180;-65
2020/12/17 01:01:39;;;;;;;23.03;13.80;;;6.50;99.90;;;;;;5010816;28;20423;-66
2020/12/17 01:04:04;;;;;;;24.27;13.53;;;6.60;99.90;;;;;;5010932;28;20193;-65
2020/12/17 01:06:30;;;;;;;24.60;12.47;;;6.60;99.90;;;;;;5010798;28;20173;-65
2020/12/17 01:08:56;;;;;;;32.87;13.90;;;6.60;99.90;;;;;;5010708;28;20180;-66
2020/12/17 01:11:31;;;;;;;30.43;13.70;;;6.60;99.90;;;;;;5010788;28;20180;-65
2020/12/17 01:13:58;;;;;;;31.20;14.63;;;6.50;99.90;;;;;;5010743;28;20598;-65
2020/12/17 01:16:23;;;;;;;32.67;14.97;;;6.60;99.90;;;;;;5010898;28;20506;-65
2020/12/17 01:18:50;;;;;;;45.23;14.40;;;6.60;99.90;;;;;;5010356;28;20517;-65
2020/12/17 01:21:16;;;;;;;27.13;14.47;;;6.60;99.90;;;;;;5010440;28;20197;-66
2020/12/17 01:23:43;;;;;;;25.67;12.50;;;6.60;99.90;;;;;;5010699;28;20518;-66
2020/12/17 01:26:09;;;;;;;36.97;14.20;;;6.60;99.90;;;;;;5013160;28;20448;-65
2020/12/17 01:28:39;;;;;;;17.93;13.03;;;6.70;99.90;;;;;;5014399;28;20419;-65
2020/12/17 01:31:13;;;;;;;32.63;14.20;;;6.60;99.90;;;;;;5014038;28;20483;-66
2020/12/17 01:33:40;;;;;;;46.63;14.13;;;6.60;99.90;;;;;;5015588;28;20465;-66
2020/12/17 01:36:07;;;;;;;19.57;14.03;;;6.60;99.90;;;;;;5014260;28;20917;-63
2020/12/17 01:38:34;;;;;;;34.77;14.37;;;6.60;99.90;;;;;;5014179;28;20419;-65
2020/12/17 01:41:00;;;;;;;22.33;13.57;;;6.60;99.90;;;;;;5014171;28;20462;-65
2020/12/17 01:43:26;;;;;;;19.23;14.20;;;6.60;99.90;;;;;;5014116;28;20412;-65
2020/12/17 01:45:52;;;;;;;34.97;15.10;;;6.70;99.90;;;;;;5014014;28;20173;-64
2020/12/17 01:48:18;;;;;;;26.50;15.43;;;6.70;99.90;;;;;;5013709;28;20176;-65
2020/12/17 01:50:44;;;;;;;34.43;15.27;;;6.70;99.90;;;;;;5013933;28;20422;-66
2020/12/17 01:53:11;;;;;;;22.50;15.03;;;6.70;99.90;;;;;;5013620;28;20537;-64
2020/12/17 01:55:37;;;;;;;41.33;14.87;;;6.60;99.90;;;;;;5013733;28;20415;-65
2020/12/17 01:58:04;;;;;;;27.97;14.77;;;6.70;99.90;;;;;;5013824;28;20781;-63
2020/12/17 02:00:39;;;;;;;24.80;14.70;;;6.70;99.90;;;;;;5013582;28;20450;-65
2020/12/17 02:03:05;;;;;;;24.10;14.40;;;6.70;99.90;;;;;;5013894;28;20812;-64
2020/12/17 02:05:32;;;;;;;21.60;15.67;;;6.80;99.90;;;;;;5013725;28;20446;-66
2020/12/17 02:07:59;;;;;;;24.40;14.90;;;6.70;99.90;;;;;;4996273;28;20474;-64
2020/12/17 02:10:29;;;;;;;28.43;14.93;;;6.70;99.90;;;;;;5013398;28;20535;-65
2020/12/17 02:12:54;;;;;;;24.03;15.03;;;6.70;99.90;;;;;;5013415;28;20421;-63
2020/12/17 02:15:21;;;;;;;24.23;14.23;;;6.70;99.90;;;;;;5013512;28;20834;-66
2020/12/17 02:17:49;;;;;;;37.80;16.00;;;6.70;99.90;;;;;;5013296;28;20523;-66
2020/12/17 02:20:16;;;;;;;34.40;15.90;;;6.70;99.90;;;;;;5013441;28;20528;-66
2020/12/17 02:22:42;;;;;;;36.93;15.53;;;6.60;99.90;;;;;;5012938;28;20407;-66
2020/12/17 02:25:15;;;;;;;30.63;16.33;;;6.60;99.90;;;;;;5012149;28;20451;-66
2020/12/17 02:27:42;;;;;;;27.03;17.27;;;6.60;99.90;;;;;;5013158;28;20450;-66
2020/12/17 02:30:10;;;;;;;29.00;16.23;;;6.60;99.90;;;;;;5013298;28;20243;-65
2020/12/17 02:32:42;;;;;;;25.63;15.60;;;6.60;99.90;;;;;;5015162;28;20451;-65
2020/12/17 02:35:15;;;;;;;24.33;16.87;;;6.50;99.90;;;;;;5012975;28;20481;-66
2020/12/17 02:37:40;;;;;;;41.40;17.30;;;6.50;99.90;;;;;;5012827;28;20435;-66
2020/12/17 02:40:06;;;;;;;32.00;17.13;;;6.60;99.90;;;;;;5012885;28;20940;-65
2020/12/17 02:42:32;;;;;;;23.30;16.90;;;6.60;99.90;;;;;;5013455;28;20196;-66
2020/12/17 02:44:57;;;;;;;29.07;16.73;;;6.60;99.90;;;;;;5032787;28;20167;-65
2020/12/17 02:47:23;;;;;;;23.30;15.10;;;6.60;99.90;;;;;;5032842;28;20208;-65
2020/12/17 02:49:48;;;;;;;28.20;15.13;;;6.60;99.90;;;;;;5032425;28;20176;-65
2020/12/17 02:52:14;;;;;;;22.83;14.40;;;6.60;99.90;;;;;;5032661;28;20693;-66
2020/12/17 02:54:40;;;;;;;25.77;14.00;;;6.70;99.90;;;;;;5032588;28;20180;-66
2020/12/17 02:57:06;;;;;;;18.63;14.40;;;6.60;99.90;;;;;;5032251;28;20187;-65
2020/12/17 02:59:31;;;;;;;22.07;14.17;;;6.60;99.90;;;;;;5032622;28;20454;-65
2020/12/17 03:01:57;;;;;;;16.97;14.03;;;6.60;99.90;;;;;;5032395;28;20262;-66
2020/12/17 03:04:22;;;;;;;16.07;13.30;;;6.60;99.90;;;;;;5032535;28;20532;-66
2020/12/17 03:06:48;;;;;;;43.17;14.00;;;6.60;99.90;;;;;;5032491;28;20207;-65
2020/12/17 03:09:14;;;;;;;25.13;13.87;;;6.60;99.90;;;;;;5032070;28;20187;-65
2020/12/17 03:11:40;;;;;;;18.57;13.27;;;6.50;99.90;;;;;;5032314;28;20251;-67
2020/12/17 03:14:05;;;;;;;22.73;14.63;;;6.50;99.90;;;;;;5032202;28;20498;-65
2020/12/17 03:16:32;;;;;;;20.17;13.43;;;6.50;99.90;;;;;;5032302;28;20175;-66
2020/12/17 03:18:58;;;;;;;28.13;13.00;;;6.50;99.90;;;;;;5032222;28;20251;-65
2020/12/17 03:21:23;;;;;;;16.77;12.83;;;6.60;99.90;;;;;;5031976;28;20453;-65
2020/12/17 03:23:49;;;;;;;18.93;13.87;;;6.50;99.90;;;;;;5031974;28;20183;-66
2020/12/17 03:26:15;;;;;;;17.20;14.07;;;6.50;99.90;;;;;;5031826;28;20581;-66
2020/12/17 03:28:40;;;;;;;20.67;14.80;;;6.50;99.90;;;;;;5032013;28;20238;-67
2020/12/17 03:31:06;;;;;;;17.17;13.57;;;6.50;99.90;;;;;;5032173;28;20193;-66
2020/12/17 03:33:32;;;;;;;23.33;13.57;;;6.50;99.90;;;;;;5012708;28;20219;-66
2020/12/17 03:35:57;;;;;;;30.93;13.77;;;6.40;99.90;;;;;;5012184;28;20177;-66
2020/12/17 03:38:23;;;;;;;17.33;14.10;;;6.30;99.90;;;;;;5011912;28;20264;-66
2020/12/17 03:40:48;;;;;;;17.70;14.20;;;6.30;99.90;;;;;;5011810;28;20200;-65
2020/12/17 03:43:14;;;;;;;20.63;14.33;;;6.30;99.90;;;;;;5012044;28;20191;-65
2020/12/17 03:45:39;;;;;;;32.43;14.03;;;6.30;99.90;;;;;;5011860;28;20172;-66
2020/12/17 03:48:05;;;;;;;29.83;14.30;;;6.30;99.90;;;;;;5011548;28;20173;-65
2020/12/17 03:50:31;;;;;;;18.67;13.97;;;6.30;99.90;;;;;;5011787;28;20177;-66
2020/12/17 03:52:56;;;;;;;20.53;14.13;;;6.20;99.90;;;;;;5012075;28;20180;-66
2020/12/17 03:55:22;;;;;;;19.47;14.03;;;6.20;99.90;;;;;;5011657;28;20231;-65
2020/12/17 03:57:47;;;;;;;17.50;13.97;;;6.20;99.90;;;;;;5011608;28;20204;-65
2020/12/17 04:00:13;;;;;;;29.73;14.60;;;6.30;99.90;;;;;;5011634;28;20202;-66
2020/12/17 04:02:38;;;;;;;51.90;14.40;;;6.30;99.90;;;;;;5011504;28;20183;-66
2020/12/17 04:05:04;;;;;;;55.50;14.07;;;6.30;99.90;;;;;;5011918;28;20179;-65
2020/12/17 04:07:29;;;;;;;90.80;15.77;;;6.20;99.90;;;;;;5011495;28;20172;-65
2020/12/17 04:09:55;;;;;;;73.93;14.70;;;6.20;99.90;;;;;;5011366;28;20234;-66
2020/12/17 04:12:21;;;;;;;39.57;12.63;;;6.20;99.90;;;;;;5011348;28;20212;-66
2020/12/17 04:14:46;;;;;;;17.07;12.60;;;6.10;99.90;;;;;;5011507;28;20184;-66
2020/12/17 04:17:13;;;;;;;15.67;13.90;;;6.10;99.90;;;;;;4994042;28;20581;-66
2020/12/17 04:19:38;;;;;;;34.87;13.27;;;6.10;99.90;;;;;;5011527;28;20200;-66
2020/12/17 04:22:04;;;;;;;30.50;13.10;;;6.20;99.90;;;;;;5011491;28;20418;-65
2020/12/17 04:24:30;;;;;;;31.47;13.27;;;6.10;99.90;;;;;;5011405;28;20184;-67
2020/12/17 04:26:56;;;;;;;31.50;12.37;;;6.10;99.90;;;;;;5011287;28;20179;-65
2020/12/17 04:29:21;;;;;;;49.17;12.23;;;6.10;99.90;;;;;;5011474;28;20183;-65
2020/12/17 04:31:47;;;;;;;31.27;11.57;;;6.10;99.90;;;;;;5011200;28;20195;-65
2020/12/17 04:34:12;;;;;;;43.27;13.17;;;6.10;99.90;;;;;;5012740;28;20215;-66
2020/12/17 04:36:38;;;;;;;15.47;11.50;;;6.00;99.90;;;;;;5011312;28;20235;-66
2020/12/17 04:39:05;;;;;;;61.67;12.37;;;5.90;99.90;;;;;;5011000;28;20172;-65
2020/12/17 04:41:32;;;;;;;38.70;11.47;;;5.90;99.90;;;;;;5011145;28;20210;-66
2020/12/17 04:43:58;;;;;;;24.67;10.90;;;5.90;99.90;;;;;;5010935;28;20415;-65
2020/12/17 04:46:25;;;;;;;16.53;11.43;;;5.90;99.90;;;;;;5011141;28;20415;-66
2020/12/17 04:48:52;;;;;;;21.43;10.70;;;5.90;99.90;;;;;;5010956;28;20423;-65
2020/12/17 04:51:21;;;;;;;15.40;10.77;;;5.90;99.90;;;;;;5010985;28;20411;-66
2020/12/17 04:53:49;;;;;;;25.43;11.40;;;5.80;99.90;;;;;;5010872;28;20478;-66
2020/12/17 04:56:18;;;;;;;36.40;11.37;;;5.80;99.90;;;;;;5011424;28;20458;-65
2020/12/17 04:58:52;;;;;;;23.27;12.27;;;5.80;99.90;;;;;;5011766;28;20427;-66
2020/12/17 05:01:18;;;;;;;27.77;12.10;;;5.70;99.90;;;;;;5015045;28;20459;-65
2020/12/17 05:03:48;;;;;;;15.27;11.70;;;5.70;99.90;;;;;;5034770;28;20410;-67
2020/12/17 05:06:22;;;;;;;28.03;12.17;;;5.70;99.90;;;;;;5034531;28;20172;-65
2020/12/17 05:08:49;;;;;;;17.40;11.57;;;5.60;99.90;;;;;;5013660;28;20445;-65
2020/12/17 05:11:15;;;;;;;14.63;11.80;;;5.50;99.90;;;;;;5014908;28;21122;-67
2020/12/17 05:13:41;;;;;;;15.80;11.43;;;5.60;99.90;;;;;;5014865;28;20447;-65
2020/12/17 05:16:06;;;;;;;22.30;11.77;;;5.60;99.90;;;;;;5014864;28;20211;-66
2020/12/17 05:18:32;;;;;;;18.67;11.97;;;5.70;99.90;;;;;;5014397;28;20580;-67
2020/12/17 05:20:59;;;;;;;16.87;11.07;;;5.70;99.90;;;;;;5014758;28;20227;-65
2020/12/17 05:23:25;;;;;;;27.63;11.43;;;5.70;99.90;;;;;;5016362;28;20262;-65
2020/12/17 05:25:52;;;;;;;27.03;11.70;;;5.60;99.90;;;;;;5034573;28;20437;-65
2020/12/17 05:28:18;;;;;;;38.83;11.90;;;5.60;99.90;;;;;;5034192;28;20414;-65
2020/12/17 05:30:43;;;;;;;35.60;12.50;;;5.60;99.90;;;;;;5033956;28;20935;-65
2020/12/17 05:33:09;;;;;;;16.70;12.03;;;5.50;99.90;;;;;;5029824;28;20620;-65
2020/12/17 05:35:36;;;;;;;34.03;12.03;;;5.60;99.90;;;;;;5014319;28;20186;-65
2020/12/17 05:38:04;;;;;;;27.00;11.13;;;5.60;99.90;;;;;;5014199;28;20239;-65
2020/12/17 05:40:40;;;;;;;16.53;10.03;;;5.60;99.90;;;;;;5014199;28;20470;-64
2020/12/17 05:43:06;;;;;;;23.93;10.80;;;5.50;99.90;;;;;;5014063;28;20419;-66
2020/12/17 05:45:33;;;;;;;93.80;12.00;;;5.50;99.90;;;;;;5014195;28;20506;-65
2020/12/17 05:48:08;;;;;;;21.40;10.03;;;5.50;99.90;;;;;;5013902;28;20426;-66
2020/12/17 05:50:34;;;;;;;18.43;9.50;;;5.40;99.90;;;;;;5014222;28;20445;-65
2020/12/17 05:53:02;;;;;;;63.77;11.47;;;5.50;99.90;;;;;;5013930;28;20764;-66
2020/12/17 05:55:31;;;;;;;20.37;9.93;;;5.50;99.90;;;;;;5013814;28;20420;-67
2020/12/17 05:57:56;;;;;;;39.70;11.10;;;5.50;99.90;;;;;;5013899;28;20426;-66
2020/12/17 06:00:22;;;;;;;30.97;8.87;;;5.50;99.90;;;;;;5013445;28;20884;-66
2020/12/17 06:02:48;;;;;;;13.73;9.90;;;5.30;99.90;;;;;;5013759;28;20231;-67
2020/12/17 06:05:16;;;;;;;39.17;10.40;;;5.30;99.90;;;;;;5013639;28;20631;-66
2020/12/17 06:07:45;;;;;;;25.33;9.33;;;5.30;99.90;;;;;;5014103;28;20187;-66
2020/12/17 06:10:19;;;;;;;28.57;10.07;;;5.20;99.90;;;;;;5013271;28;20840;-65
2020/12/17 06:12:46;;;;;;;47.97;10.60;;;5.10;99.90;;;;;;5013548;28;20442;-66
2020/12/17 06:15:26;;;;;;;40.17;10.53;;;5.00;99.90;;;;;;5013515;28;20478;-65
2020/12/17 06:17:59;;;;;;;21.40;10.20;;;5.00;99.90;;;;;;5013830;28;20431;-67
2020/12/17 06:20:29;;;;;;;13.40;9.80;;;4.90;99.90;;;;;;5001998;28;20524;-64
2020/12/17 06:23:04;;;;;;;23.83;10.73;;;5.00;99.90;;;;;;4994017;28;20421;-65
2020/12/17 06:25:35;;;;;;;16.40;10.67;;;5.10;99.90;;;;;;5000571;28;20415;-65
2020/12/17 06:28:01;;;;;;;26.87;10.50;;;5.00;99.90;;;;;;5013272;28;20408;-66
2020/12/17 06:30:31;;;;;;;17.57;10.43;;;5.10;99.90;;;;;;5013220;28;20518;-67
2020/12/17 06:32:58;;;;;;;27.20;10.97;;;5.10;99.90;;;;;;5019094;28;20231;-66
2020/12/17 06:35:47;;;;;;;12.27;10.80;;;5.20;99.90;;;;;;5033610;28;20476;-65
2020/12/17 06:38:17;;;;;;;16.07;10.83;;;5.20;99.90;;;;;;5032382;28;20442;-64
2020/12/17 06:40:44;;;;;;;25.23;12.63;;;5.20;99.90;;;;;;5033316;28;20470;-65
2020/12/17 06:43:28;;;;;;;16.13;13.00;;;5.10;99.90;;;;;;5033555;28;20473;-65
2020/12/17 06:45:54;;;;;;;14.83;11.30;;;5.20;99.90;;;;;;5019511;28;20948;-64
2020/12/17 06:48:32;;;;;;;23.07;12.27;;;5.20;99.90;;;;;;5030603;28;20443;-64
2020/12/17 06:50:59;;;;;;;23.00;10.97;;;5.20;99.90;;;;;;5030176;28;20203;-65
2020/12/17 06:53:39;;;;;;;16.77;11.23;;;5.20;99.90;;;;;;5033279;28;20423;-65
2020/12/17 06:56:05;;;;;;;13.60;11.47;;;5.10;99.90;;;;;;5027117;28;20420;-64
2020/12/17 06:58:30;;;;;;;19.00;11.17;;;5.20;99.90;;;;;;5028138;28;20422;-64
2020/12/17 07:00:56;;;;;;;20.87;12.53;;;5.20;99.90;;;;;;5012486;28;20199;-64
2020/12/17 07:03:48;;;;;;;21.43;12.10;;;5.10;99.90;;;;;;5018306;28;20509;-64
2020/12/17 07:06:17;;;;;;;31.03;12.30;;;5.20;99.90;;;;;;5026722;28;20541;-65
2020/12/17 07:08:45;;;;;;;25.57;11.90;;;5.10;99.90;;;;;;5022671;28;20419;-65
2020/12/17 07:11:43;;;;;;;17.83;11.37;;;5.20;99.90;;;;;;5019237;28;20438;-65
2020/12/17 07:14:10;;;;;;;25.20;11.37;;;5.10;99.90;;;;;;5023608;28;20506;-65
2020/12/17 07:16:37;;;;;;;20.87;10.43;;;5.10;99.90;;;;;;5026844;28;20415;-64
2020/12/17 07:19:16;;;;;;;14.27;10.63;;;5.00;99.90;;;;;;5019948;28;20451;-64
2020/12/17 07:21:42;;;;;;;12.47;9.77;;;4.90;99.90;;;;;;5019507;28;20498;-64
2020/12/17 07:24:07;;;;;;;13.00;10.13;;;4.80;99.90;;;;;;5025895;28;20446;-64
2020/12/17 07:26:34;;;;;;;12.87;9.60;;;4.70;99.90;;;;;;5023240;28;20673;-64
2020/12/17 07:29:00;;;;;;;12.27;10.07;;;4.70;99.90;;;;;;5025750;28;20271;-64
2020/12/17 07:31:27;;;;;;;11.03;9.23;;;4.70;99.90;;;;;;5019533;28;20505;-64
2020/12/17 07:33:53;;;;;;;10.53;8.73;;;4.70;99.90;;;;;;5027213;28;20246;-64
2020/12/17 07:36:46;;;;;;;10.43;8.77;;;4.60;99.90;;;;;;5025654;28;20463;-63
2020/12/17 07:39:12;;;;;;;10.40;9.30;;;4.60;99.90;;;;;;5013422;28;20968;-65
2020/12/17 07:41:38;;;;;;;12.20;9.30;;;4.70;99.90;;;;;;5031836;28;20556;-64
2020/12/17 07:44:04;;;;;;;10.83;8.40;;;4.80;99.90;;;;;;5030152;28;20215;-64
2020/12/17 07:46:42;;;;;;;10.67;8.73;;;4.90;99.90;;;;;;5020896;28;20502;-63
2020/12/17 07:49:38;;;;;;;10.63;9.63;;;4.90;99.90;;;;;;5023191;28;20247;-64
2020/12/17 07:52:04;;;;;;;10.70;9.47;;;4.90;99.90;;;;;;4994527;28;20430;-64
2020/12/17 07:54:29;;;;;;;10.13;9.03;;;4.90;99.90;;;;;;5019027;28;20534;-64
2020/12/17 07:56:59;;;;;;;10.77;9.33;;;4.90;99.90;;;;;;5031427;28;20203;-64
2020/12/17 07:59:25;;;;;;;9.63;8.73;;;5.10;99.90;;;;;;5017438;28;20243;-64
2020/12/17 08:02:03;;;;;;;10.40;9.33;;;5.20;99.90;;;;;;5022101;28;20423;-63
2020/12/17 08:04:29;;;;;;;9.93;8.63;;;5.30;99.90;;;;;;5014815;28;20208;-64
2020/12/17 08:06:54;;;;;;;10.73;9.43;;;5.40;99.90;;;;;;5026405;28;20414;-64
2020/12/17 08:09:23;;;;;;;11.00;9.90;;;5.50;99.90;;;;;;5011817;28;20184;-64
2020/12/17 08:11:56;;;;;;;14.23;11.73;;;5.70;99.90;;;;;;5022531;28;20192;-64
2020/12/17 08:14:25;;;;;;;13.47;10.93;;;5.90;99.90;;;;;;5020435;28;20424;-64
2020/12/17 08:16:53;;;;;;;12.53;11.23;;;5.90;99.90;;;;;;5023765;28;20779;-64
2020/12/17 08:19:19;;;;;;;15.60;12.73;;;6.00;99.90;;;;;;5010299;28;20411;-64
2020/12/17 08:21:45;;;;;;;14.83;11.80;;;6.00;99.90;;;;;;5020640;28;20463;-64
2020/12/17 08:24:11;;;;;;;20.27;14.50;;;6.10;99.90;;;;;;5024874;28;20191;-64
2020/12/17 08:26:37;;;;;;;19.37;14.50;;;6.10;99.90;;;;;;5026222;28;20795;-64
2020/12/17 08:29:03;;;;;;;16.20;13.37;;;6.10;99.90;;;;;;5030618;28;20230;-63
2020/12/17 08:31:29;;;;;;;16.57;13.90;;;6.30;99.90;;;;;;5012854;28;20263;-64
2020/12/17 08:34:03;;;;;;;16.83;14.07;;;6.30;99.90;;;;;;5013735;28;20227;-64
2020/12/17 08:36:32;;;;;;;15.10;12.43;;;6.50;99.90;;;;;;5030741;28;20520;-64
2020/12/17 08:39:02;;;;;;;17.87;12.83;;;6.50;99.90;;;;;;5027877;28;20415;-64
2020/12/17 08:41:36;;;;;;;15.97;13.07;;;6.60;99.90;;;;;;5024634;28;20561;-63
2020/12/17 08:44:04;;;;;;;15.70;12.77;;;6.70;99.90;;;;;;5029416;28;20418;-64
2020/12/17 08:46:36;;;;;;;19.93;13.63;;;6.70;99.90;;;;;;5016107;28;20480;-63
2020/12/17 08:49:05;;;;;;;17.10;13.27;;;6.80;99.90;;;;;;5024406;28;20415;-64
2020/12/17 08:51:32;;;;;;;15.63;12.50;;;6.90;99.90;;;;;;5030736;28;20433;-64
2020/12/17 08:53:58;;;;;;;16.73;13.57;;;6.90;99.90;;;;;;5030732;28;20426;-64
2020/12/17 08:56:24;;;;;;;17.73;13.63;;;7.00;99.90;;;;;;5019015;28;20493;-64
2020/12/17 08:58:53;;;;;;;15.50;13.17;;;7.10;99.90;;;;;;5030679;28;20546;-64
2020/12/17 09:01:23;;;;;;;20.07;13.73;;;7.20;99.90;;;;;;5026805;28;20523;-63
2020/12/17 09:03:49;;;;;;;17.20;13.93;;;7.20;99.90;;;;;;5029303;28;20504;-64
2020/12/17 09:06:15;;;;;;;17.73;13.77;;;7.30;99.90;;;;;;5030464;28;20417;-64
2020/12/17 09:08:41;;;;;;;16.17;13.93;;;7.30;99.90;;;;;;5023860;28;20416;-64
2020/12/17 09:11:30;;;;;;;18.30;13.63;;;7.40;99.90;;;;;;5030713;28;20219;-64
2020/12/17 09:14:01;;;;;;;16.60;13.30;;;7.40;99.90;;;;;;5018250;28;20179;-64
2020/12/17 09:16:28;;;;;;;19.30;12.33;;;7.40;99.90;;;;;;5022059;28;20446;-64
2020/12/17 09:18:59;;;;;;;15.57;10.43;;;7.60;99.90;;;;;;5030624;28;20473;-64
2020/12/17 09:21:25;;;;;;;9.57;8.57;;;7.70;99.90;;;;;;5012620;28;20537;-64
2020/12/17 09:23:56;;;;;;;18.70;9.83;;;7.80;99.90;;;;;;5014964;28;20407;-64
2020/12/17 09:26:21;;;;;;;11.20;8.33;;;8.00;99.90;;;;;;5013424;28;20427;-64
2020/12/17 09:28:51;;;;;;;11.03;8.37;;;8.10;99.90;;;;;;5028757;28;20513;-64
2020/12/17 09:31:32;;;;;;;11.87;7.83;;;8.20;99.90;;;;;;5017303;28;20229;-64
2020/12/17 09:34:17;;;;;;;14.77;7.70;;;8.40;99.90;;;;;;5024092;28;20549;-65
2020/12/17 09:36:53;;;;;;;9.10;6.80;;;8.70;99.90;;;;;;5028914;28;20422;-64
2020/12/17 09:39:19;;;;;;;8.67;6.53;;;8.80;99.90;;;;;;4991868;28;20418;-64
2020/12/17 09:41:56;;;;;;;8.63;5.10;;;8.90;99.90;;;;;;5010573;28;20894;-64
2020/12/17 09:44:35;;;;;;;7.53;4.33;;;9.10;99.90;;;;;;5024999;28;20637;-64
2020/12/17 09:47:03;;;;;;;5.20;3.67;;;9.20;99.90;;;;;;5031535;28;20831;-64
2020/12/17 09:49:34;;;;;;;4.50;3.83;;;9.40;99.90;;;;;;5022711;28;20417;-63
2020/12/17 09:52:02;;;;;;;8.13;4.13;;;9.50;99.90;;;;;;5033831;28;20446;-64
2020/12/17 09:54:28;;;;;;;6.50;3.77;;;9.50;99.90;;;;;;5013139;28;20470;-64
2020/12/17 09:57:02;;;;;;;7.73;3.30;;;9.60;99.90;;;;;;5026282;28;20414;-64
2020/12/17 09:59:28;;;;;;;6.60;3.37;;;9.70;99.90;;;;;;5033794;28;20181;-65
2020/12/17 10:01:58;;;;;;;4.77;3.20;;;9.70;99.90;;;;;;5015007;28;20431;-64
2020/12/17 10:04:25;;;;;;;4.37;3.33;;;9.80;99.90;;;;;;5032164;28;20195;-64
2020/12/17 10:06:50;;;;;;;5.63;3.20;;;9.90;99.90;;;;;;5031010;28;20518;-64
2020/12/17 10:09:16;;;;;;;4.03;2.80;;;9.90;99.90;;;;;;5033466;28;20434;-64
2020/12/17 10:11:46;;;;;;;3.07;2.77;;;9.90;99.90;;;;;;5033557;28;20634;-65
2020/12/17 10:14:12;;;;;;;3.93;2.67;;;10.00;99.90;;;;;;5026649;28;20180;-64
2020/12/17 10:16:38;;;;;;;4.90;2.93;;;10.10;99.90;;;;;;5025139;28;20207;-64
2020/12/17 10:19:10;;;;;;;4.00;2.80;;;10.10;99.90;;;;;;5013792;28;20180;-65
2020/12/17 10:21:36;;;;;;;4.67;2.93;;;10.10;99.90;;;;;;5021482;28;20201;-64
2020/12/17 10:24:04;;;;;;;5.30;3.20;;;10.20;99.90;;;;;;5020295;28;20203;-64
2020/12/17 10:26:30;;;;;;;6.50;2.80;;;10.20;99.90;;;;;;5029468;28;20187;-64
2020/12/17 10:28:55;;;;;;;2.87;2.50;;;10.30;99.90;;;;;;5030661;28;20191;-65
2020/12/17 10:31:21;;;;;;;3.40;2.73;;;10.20;99.90;;;;;;5025818;28;20634;-65
2020/12/17 10:33:47;;;;;;;3.93;2.77;;;10.20;99.90;;;;;;5014866;28;20244;-64
2020/12/17 10:36:12;;;;;;;4.73;2.97;;;10.30;99.90;;;;;;5013193;28;20609;-65
2020/12/17 10:38:38;;;;;;;3.80;2.57;;;10.40;99.90;;;;;;5013660;28;20185;-64
2020/12/17 10:41:04;;;;;;;5.30;3.37;;;10.50;99.90;;;;;;5013063;28;20270;-64
2020/12/17 10:43:29;;;;;;;3.00;2.20;;;10.50;99.90;;;;;;5013414;28;20518;-64
2020/12/17 10:45:55;;;;;;;3.47;2.50;;;10.60;99.90;;;;;;5013152;28;20176;-65
2020/12/17 10:48:20;;;;;;;3.60;2.70;;;10.60;99.90;;;;;;5012883;28;20235;-64
2020/12/17 10:50:48;;;;;;;5.07;2.70;;;10.50;99.90;;;;;;5013106;28;20243;-64
2020/12/17 10:53:14;;;;;;;4.63;2.73;;;10.50;99.90;;;;;;5012306;28;20234;-64
2020/12/17 10:55:40;;;;;;;2.67;2.30;;;10.60;99.90;;;;;;5012765;28;20653;-64
2020/12/17 10:58:06;;;;;;;3.43;2.73;;;10.70;99.90;;;;;;5012297;28;20180;-64
2020/12/17 11:00:31;;;;;;;4.97;2.57;;;10.60;99.90;;;;;;5012383;28;20211;-64
2020/12/17 11:02:57;;;;;;;2.67;2.40;;;10.60;99.90;;;;;;5012769;28;20251;-64
2020/12/17 11:05:23;;;;;;;4.63;2.73;;;10.70;99.90;;;;;;5012418;28;20187;-65
2020/12/17 11:07:48;;;;;;;5.20;2.60;;;10.60;99.90;;;;;;5012761;28;20668;-65
2020/12/17 11:10:14;;;;;;;3.87;2.80;;;10.70;99.90;;;;;;5012698;28;20176;-65
2020/12/17 11:12:39;;;;;;;3.33;2.20;;;10.70;99.90;;;;;;5012561;28;20308;-65
2020/12/17 11:15:05;;;;;;;4.40;2.77;;;10.80;99.90;;;;;;5012759;28;20498;-64
2020/12/17 11:17:30;;;;;;;2.97;2.40;;;10.80;99.90;;;;;;5012499;28;20267;-65
2020/12/17 11:19:56;;;;;;;3.57;2.33;;;10.90;99.90;;;;;;5012507;28;20204;-65
2020/12/17 11:22:22;;;;;;;4.27;2.40;;;10.90;99.90;;;;;;5012553;28;20203;-65
2020/12/17 11:24:47;;;;;;;2.57;2.30;;;10.90;99.90;;;;;;5012251;28;20534;-64
2020/12/17 11:27:13;;;;;;;3.40;2.00;;;10.90;99.90;;;;;;5012409;28;20247;-65
2020/12/17 11:29:38;;;;;;;2.33;1.90;;;10.90;99.90;;;;;;5011883;28;20315;-64
2020/12/17 11:32:11;;;;;;;2.53;2.30;;;10.90;99.90;;;;;;5012417;28;20578;-64
2020/12/17 11:34:36;;;;;;;3.00;2.10;;;11.00;99.90;;;;;;5012969;28;20554;-64
2020/12/17 11:37:02;;;;;;;3.33;1.80;;;10.90;99.90;;;;;;5011708;28;20714;-65
2020/12/17 11:39:28;;;;;;;2.70;1.90;;;10.90;99.90;;;;;;5011874;28;20173;-65
2020/12/17 11:41:54;;;;;;;4.10;1.90;;;10.90;99.90;;;;;;5011555;28;20202;-64
2020/12/17 11:44:19;;;;;;;3.83;1.80;;;10.90;99.90;;;;;;5011839;28;20585;-65
2020/12/17 11:46:46;;;;;;;4.20;1.70;;;10.80;99.90;;;;;;4994206;28;20227;-64
2020/12/17 11:49:11;;;;;;;2.97;2.23;;;10.80;99.90;;;;;;5011557;28;20259;-65
2020/12/17 11:51:37;;;;;;;2.93;1.93;;;10.80;99.90;;;;;;5011974;28;20280;-64
2020/12/17 11:54:03;;;;;;;4.33;2.00;;;10.90;99.90;;;;;;5011628;28;20519;-64
2020/12/17 11:56:30;;;;;;;3.67;1.80;;;10.80;99.90;;;;;;5011751;28;20181;-64
2020/12/17 11:58:56;;;;;;;5.00;2.00;;;10.90;99.90;;;;;;5011801;28;20734;-64
2020/12/17 12:01:28;;;;;;;2.53;2.13;;;10.90;99.90;;;;;;5011462;28;20208;-64
2020/12/17 12:03:54;;;;;;;5.17;2.27;;;10.90;99.90;;;;;;5011539;28;20268;-64
2020/12/17 12:06:19;;;;;;;6.07;2.00;;;10.90;99.90;;;;;;5011432;28;20623;-63
2020/12/17 12:08:45;;;;;;;3.70;2.07;;;11.00;99.90;;;;;;5010982;28;20238;-64
2020/12/17 12:11:10;;;;;;;5.10;2.20;;;11.00;99.90;;;;;;5011153;28;20212;-64
2020/12/17 12:13:36;;;;;;;3.53;1.87;;;11.00;99.90;;;;;;5011674;28;20200;-64
2020/12/17 12:16:01;;;;;;;4.60;2.40;;;11.00;99.90;;;;;;5011496;28;20176;-64
2020/12/17 12:18:27;;;;;;;6.03;3.10;;;11.00;99.90;;;;;;5011212;28;20192;-64
2020/12/17 12:20:52;;;;;;;4.90;2.83;;;11.10;99.90;;;;;;5011216;28;20200;-65
2020/12/17 12:23:18;;;;;;;4.83;2.20;;;11.10;99.90;;;;;;5011182;28;20184;-65
2020/12/17 12:25:44;;;;;;;4.03;1.73;;;11.10;99.90;;;;;;5011393;28;20186;-65
2020/12/17 12:28:10;;;;;;;4.70;2.03;;;11.20;99.90;;;;;;5011087;28;20176;-64
2020/12/17 12:30:35;;;;;;;1.83;1.50;;;11.90;99.90;;;;;;5011268;28;20649;-64
2020/12/17 12:33:01;;;;;;;5.93;2.27;;;12.70;99.90;;;;;;5011163;28;20191;-64
2020/12/17 12:35:27;;;;;;;5.57;1.93;;;13.50;99.90;;;;;;5012911;28;20695;-64
2020/12/17 12:37:52;;;;;;;1.83;1.40;;;13.80;99.30;;;;;;5011371;28;20202;-64
2020/12/17 12:40:18;;;;;;;4.33;1.90;;;13.70;98.40;;;;;;5011001;28;20200;-64
2020/12/17 12:42:43;;;;;;;3.50;1.60;;;13.90;99.30;;;;;;5010891;28;20271;-64